createdAt,value
2023-01-13T00:00:38.363Z,17.33
2023-01-13T00:03:05.692Z,14.63
2023-01-13T00:05:32.806Z,13.90
2023-01-13T00:07:59.933Z,13.43
2023-01-13T00:10:27.075Z,8.20
2023-01-13T00:12:54.259Z,13.25
2023-01-13T00:15:21.368Z,11.07
2023-01-13T00:17:48.847Z,7.30
2023-01-13T00:20:16.087Z,13.05
2023-01-13T00:22:43.246Z,8.48
2023-01-13T00:25:10.437Z,12.50
2023-01-13T00:27:37.670Z,8.02
2023-01-13T00:30:05.580Z,11.55
2023-01-13T00:32:32.987Z,13.45
2023-01-13T00:35:00.253Z,13.93
2023-01-13T00:37:27.377Z,10.27
2023-01-13T00:39:54.688Z,11.05
2023-01-13T00:42:40.836Z,10.63
2023-01-13T00:45:08.145Z,18.58
2023-01-13T00:47:35.298Z,8.88
2023-01-13T00:50:02.439Z,14.05
2023-01-13T00:52:29.619Z,12.30
2023-01-13T00:54:57.095Z,12.07
2023-01-13T00:57:24.269Z,15.73
2023-01-13T00:59:51.465Z,11.30
2023-01-13T01:02:18.657Z,10.05
2023-01-13T01:04:45.848Z,13.65
2023-01-13T01:07:12.925Z,7.68
2023-01-13T01:09:40.373Z,9.57
2023-01-13T01:12:07.661Z,17.33
2023-01-13T01:14:34.862Z,12.52
2023-01-13T01:17:02.096Z,15.25
2023-01-13T01:19:29.265Z,9.23
2023-01-13T01:21:56.406Z,18.58
2023-01-13T01:24:23.494Z,9.80
2023-01-13T01:26:50.744Z,13.13
2023-01-13T01:29:18.044Z,9.65
2023-01-13T01:31:45.364Z,17.75
2023-01-13T01:34:12.601Z,16.50
2023-01-13T01:36:40.151Z,21.88
2023-01-13T01:39:07.465Z,12.15
2023-01-13T01:41:35.737Z,10.45
2023-01-13T01:44:08.033Z,18.70
2023-01-13T01:46:45.030Z,15.90
2023-01-13T01:49:12.181Z,12.98
2023-01-13T01:51:42.842Z,10.55
2023-01-13T01:54:12.458Z,10.73
2023-01-13T01:56:41.578Z,12.57
2023-01-13T01:59:08.801Z,14.88
2023-01-13T02:01:36.122Z,16.50
2023-01-13T02:04:08.023Z,13.38
2023-01-13T02:06:35.249Z,17.83
2023-01-13T02:09:02.467Z,17.02
2023-01-13T02:11:49.961Z,15.15
2023-01-13T02:14:17.512Z,14.25
2023-01-13T02:16:59.532Z,11.00
2023-01-13T02:19:38.662Z,7.07
2023-01-13T02:22:14.799Z,21.70
2023-01-13T02:25:02.352Z,10.18
2023-01-13T02:27:29.711Z,19.85
2023-01-13T02:30:19.733Z,15.07
2023-01-13T02:32:49.604Z,10.02
2023-01-13T02:35:25.320Z,15.60
2023-01-13T02:37:52.563Z,13.52
2023-01-13T02:40:26.089Z,16.15
2023-01-13T02:43:17.869Z,18.10
2023-01-13T02:45:49.776Z,15.75
2023-01-13T02:48:17.872Z,12.27
2023-01-13T02:50:48.095Z,14.23
2023-01-13T02:53:25.112Z,10.77
2023-01-13T02:55:53.729Z,13.02
2023-01-13T02:58:23.437Z,22.75
2023-01-13T03:00:51.910Z,15.63
2023-01-13T03:03:19.409Z,15.23
2023-01-13T03:05:48.423Z,14.77
2023-01-13T03:08:15.742Z,20.23
2023-01-13T03:10:48.942Z,17.73
2023-01-13T03:13:28.138Z,20.70
2023-01-13T03:16:14.026Z,11.68
2023-01-13T03:18:50.067Z,13.35
2023-01-13T03:21:28.022Z,15.38
2023-01-13T03:23:55.741Z,15.15
2023-01-13T03:26:29.439Z,22.58
2023-01-13T03:29:07.479Z,19.75
2023-01-13T03:31:35.743Z,20.58
2023-01-13T03:34:05.256Z,15.30
2023-01-13T03:36:33.139Z,17.70
2023-01-13T03:39:03.678Z,21.15
2023-01-13T03:41:34.000Z,16.75
2023-01-13T03:44:24.220Z,23.92
2023-01-13T03:47:00.022Z,19.58
2023-01-13T03:49:32.797Z,16.27
2023-01-13T03:52:02.597Z,11.45
2023-01-13T03:54:31.066Z,11.45
2023-01-13T03:57:01.004Z,16.33
2023-01-13T03:59:31.333Z,15.82
2023-01-13T04:02:08.592Z,16.45
2023-01-13T04:04:39.291Z,14.05
2023-01-13T04:07:18.716Z,24.48
2023-01-13T04:09:50.835Z,14.77
2023-01-13T04:12:20.982Z,23.88
2023-01-13T04:14:48.359Z,15.95
2023-01-13T04:17:16.432Z,17.50
2023-01-13T04:19:43.577Z,16.13
2023-01-13T04:22:10.805Z,21.23
2023-01-13T04:24:37.873Z,17.13
2023-01-13T04:27:06.426Z,15.50
2023-01-13T04:29:33.564Z,14.20
2023-01-13T04:32:00.695Z,13.60
2023-01-13T04:34:28.564Z,22.02
2023-01-13T04:36:55.787Z,11.05
2023-01-13T04:39:22.967Z,14.00
2023-01-13T04:41:59.086Z,10.77
2023-01-13T04:44:27.137Z,13.45
2023-01-13T04:46:54.560Z,19.75
2023-01-13T04:49:21.821Z,12.93
2023-01-13T04:51:48.997Z,21.75
2023-01-13T04:54:16.256Z,13.35
2023-01-13T04:56:43.421Z,15.90
2023-01-13T04:59:11.363Z,15.02
2023-01-13T05:01:38.785Z,11.98
2023-01-13T05:04:06.285Z,15.38
2023-01-13T05:06:33.495Z,25.08
2023-01-13T05:09:00.704Z,12.48
2023-01-13T05:11:46.452Z,10.75
2023-01-13T05:14:32.561Z,14.00
2023-01-13T05:17:03.498Z,15.52
2023-01-13T05:19:40.818Z,10.18
2023-01-13T05:22:26.741Z,18.17
2023-01-13T05:25:12.800Z,16.98
2023-01-13T05:27:40.021Z,9.52
2023-01-13T05:30:07.399Z,12.35
2023-01-13T05:32:34.500Z,7.50
2023-01-13T05:35:01.646Z,11.77
2023-01-13T05:37:29.015Z,6.00
2023-01-13T05:40:14.676Z,15.90
2023-01-13T05:43:00.719Z,11.52
2023-01-13T05:45:27.870Z,10.13
2023-01-13T05:47:54.945Z,17.45
2023-01-13T05:50:22.027Z,12.25
2023-01-13T05:52:49.484Z,12.07
2023-01-13T05:55:16.641Z,6.10
2023-01-13T05:57:43.800Z,9.77
2023-01-13T06:00:11.201Z,7.50
2023-01-13T06:02:38.391Z,12.40
2023-01-13T06:05:05.755Z,18.25
2023-01-13T06:07:32.813Z,8.93
2023-01-13T06:09:59.961Z,9.05
2023-01-13T06:12:27.116Z,7.57
2023-01-13T06:14:54.285Z,17.38
2023-01-13T06:17:21.470Z,8.55
2023-01-13T06:19:48.537Z,9.88
2023-01-13T06:22:35.711Z,8.52
2023-01-13T06:25:02.851Z,8.98
2023-01-13T06:27:30.446Z,7.63
2023-01-13T06:29:57.584Z,8.65
2023-01-13T06:32:27.377Z,10.88
2023-01-13T06:34:58.831Z,9.05
2023-01-13T06:37:26.571Z,7.28
2023-01-13T06:39:58.120Z,7.13
2023-01-13T06:42:47.828Z,11.63
2023-01-13T06:45:15.299Z,9.43
2023-01-13T06:47:43.391Z,7.15
2023-01-13T06:50:10.939Z,7.90
2023-01-13T06:52:38.019Z,4.57
2023-01-13T06:55:05.341Z,8.05
2023-01-13T06:57:32.516Z,5.15
2023-01-13T06:59:59.753Z,8.13
2023-01-13T07:02:28.192Z,6.93
2023-01-13T07:04:55.491Z,4.97
2023-01-13T07:07:22.597Z,6.65
2023-01-13T07:09:49.678Z,6.95
2023-01-13T07:12:16.742Z,4.35
2023-01-13T07:15:02.519Z,6.20
2023-01-13T07:17:29.603Z,10.48
2023-01-13T07:19:58.021Z,8.95
2023-01-13T07:22:25.156Z,11.68
2023-01-13T07:24:52.267Z,7.78
2023-01-13T07:27:19.416Z,9.55
2023-01-13T07:29:46.669Z,7.78
2023-01-13T07:32:14.345Z,11.50
2023-01-13T07:34:41.495Z,7.95
2023-01-13T07:37:08.729Z,7.25
2023-01-13T07:39:35.929Z,7.45
2023-01-13T07:42:21.691Z,11.27
2023-01-13T07:44:48.827Z,8.40
2023-01-13T07:47:15.885Z,9.75
2023-01-13T07:49:43.001Z,8.73
2023-01-13T07:52:10.089Z,11.48
2023-01-13T07:54:40.932Z,10.18
2023-01-13T07:57:08.961Z,13.07
2023-01-13T07:59:36.146Z,8.23
2023-01-13T08:02:03.474Z,11.23
2023-01-13T08:04:30.767Z,9.05
2023-01-13T08:06:57.909Z,10.40
2023-01-13T08:09:25.063Z,7.93
2023-01-13T08:12:13.282Z,6.65
2023-01-13T08:14:40.481Z,10.25
2023-01-13T08:17:10.731Z,14.55
2023-01-13T08:19:37.845Z,9.68
2023-01-13T08:22:05.083Z,12.50
2023-01-13T08:24:32.249Z,13.43
2023-01-13T08:26:59.657Z,8.18
2023-01-13T08:29:26.768Z,7.43
2023-01-13T08:31:53.831Z,6.93
2023-01-13T08:34:21.035Z,8.02
2023-01-13T08:36:50.018Z,7.13
2023-01-13T08:39:18.584Z,10.40
2023-01-13T08:41:58.720Z,11.00
2023-01-13T08:44:30.221Z,9.20
2023-01-13T08:46:57.479Z,12.18
2023-01-13T08:49:24.881Z,11.45
2023-01-13T08:51:52.672Z,12.55
2023-01-13T08:54:20.145Z,13.27
2023-01-13T08:56:47.406Z,12.95
2023-01-13T08:59:15.137Z,8.82
2023-01-13T09:01:42.678Z,12.18
2023-01-13T09:04:20.199Z,14.90
2023-01-13T09:06:47.835Z,15.98
2023-01-13T09:09:15.619Z,10.40
2023-01-13T09:12:02.587Z,15.35
2023-01-13T09:14:30.748Z,9.32
2023-01-13T09:16:58.362Z,10.63
2023-01-13T09:19:25.682Z,12.68
2023-01-13T09:21:52.902Z,9.43
2023-01-13T09:24:20.470Z,9.85
2023-01-13T09:26:47.984Z,7.68
2023-01-13T09:29:15.503Z,12.55
2023-01-13T09:31:44.229Z,8.55
2023-01-13T09:34:33.707Z,14.57
2023-01-13T09:37:01.303Z,8.30
2023-01-13T09:39:33.031Z,10.80
2023-01-13T09:42:22.678Z,15.00
2023-01-13T09:44:59.062Z,10.25
2023-01-13T09:47:40.953Z,11.52
2023-01-13T09:50:26.528Z,4.80
2023-01-13T09:52:53.812Z,5.68
2023-01-13T09:55:26.301Z,10.55
2023-01-13T09:57:53.418Z,11.48
2023-01-13T10:00:24.665Z,11.90
2023-01-13T10:02:58.150Z,10.90
2023-01-13T10:05:39.045Z,11.05
2023-01-13T10:08:11.321Z,14.38
2023-01-13T10:10:41.480Z,9.98
2023-01-13T10:13:20.734Z,17.08
2023-01-13T10:15:53.782Z,11.68
2023-01-13T10:18:28.847Z,8.65
2023-01-13T10:21:13.753Z,8.60
2023-01-13T10:23:50.853Z,20.30
2023-01-13T10:26:27.858Z,11.40
2023-01-13T10:28:55.695Z,12.55
2023-01-13T10:31:23.501Z,12.52
2023-01-13T10:33:58.315Z,15.60
2023-01-13T10:36:25.439Z,15.07
2023-01-13T10:38:52.731Z,17.23
2023-01-13T10:41:24.063Z,9.48
2023-01-13T10:44:07.219Z,15.95
2023-01-13T10:46:50.329Z,11.90
2023-01-13T10:49:29.012Z,14.32
2023-01-13T10:51:56.203Z,9.15
2023-01-13T10:54:24.798Z,8.85
2023-01-13T10:57:11.947Z,12.77
2023-01-13T10:59:39.039Z,7.38
2023-01-13T11:02:24.241Z,9.80
2023-01-13T11:04:55.281Z,7.78
2023-01-13T11:07:30.370Z,10.75
2023-01-13T11:10:07.152Z,10.57
2023-01-13T11:12:35.653Z,14.43
2023-01-13T11:15:04.920Z,10.95
2023-01-13T11:17:32.099Z,7.75
2023-01-13T11:20:04.878Z,12.07
2023-01-13T11:22:38.251Z,9.88
2023-01-13T11:25:06.886Z,17.10
2023-01-13T11:27:43.262Z,8.48
2023-01-13T11:30:10.336Z,8.32
2023-01-13T11:32:44.890Z,7.35
2023-01-13T11:35:17.097Z,9.07
2023-01-13T11:37:50.290Z,6.32
2023-01-13T11:40:20.733Z,15.13
2023-01-13T11:42:59.399Z,11.77
2023-01-13T11:45:46.906Z,10.57
2023-01-13T11:48:19.328Z,7.85
2023-01-13T11:50:51.009Z,17.80
2023-01-13T11:53:30.397Z,11.35
2023-01-13T11:56:16.098Z,14.02
2023-01-13T11:58:50.956Z,6.20
2023-01-13T12:01:27.538Z,11.35
2023-01-13T12:04:21.027Z,11.32
2023-01-13T12:06:53.223Z,11.73
2023-01-13T12:09:36.823Z,14.02
2023-01-13T12:12:27.673Z,7.90
2023-01-13T12:15:00.937Z,9.10
2023-01-13T12:17:47.936Z,12.95
2023-01-13T12:20:33.936Z,12.65
2023-01-13T12:23:03.217Z,12.93
2023-01-13T12:25:33.136Z,10.40
2023-01-13T12:28:03.079Z,5.72
2023-01-13T12:30:37.105Z,10.80
2023-01-13T12:33:25.316Z,12.38
2023-01-13T12:36:00.222Z,7.57
2023-01-13T12:38:38.186Z,7.90
2023-01-13T12:41:05.248Z,8.07
2023-01-13T12:43:51.991Z,7.95
2023-01-13T12:46:22.035Z,6.85
2023-01-13T12:48:56.592Z,7.22
2023-01-13T12:51:23.696Z,11.68
2023-01-13T12:53:51.262Z,9.50
2023-01-13T12:56:22.837Z,9.95
2023-01-13T12:58:50.029Z,7.28
2023-01-13T13:01:18.385Z,4.68
2023-01-13T13:04:05.188Z,8.88
2023-01-13T13:06:32.976Z,8.77
2023-01-13T13:09:03.891Z,7.75
2023-01-13T13:11:58.222Z,7.47
2023-01-13T13:14:40.564Z,7.75
2023-01-13T13:17:26.574Z,5.72
2023-01-13T13:19:53.689Z,8.50
2023-01-13T13:22:20.925Z,8.02
2023-01-13T13:24:50.816Z,4.88
2023-01-13T13:27:19.338Z,2.72
2023-01-13T13:29:49.525Z,3.75
2023-01-13T13:32:31.734Z,5.47
2023-01-13T13:37:32.384Z,10.15
2023-01-13T13:40:21.537Z,6.93
2023-01-13T13:43:12.247Z,12.55
2023-01-13T13:46:09.035Z,3.03
2023-01-13T13:48:37.309Z,5.47
2023-01-13T13:51:17.745Z,4.68
2023-01-13T13:53:44.950Z,7.70
2023-01-13T13:56:21.738Z,4.53
2023-01-13T13:58:49.359Z,3.97
2023-01-13T14:01:27.866Z,8.65
2023-01-13T14:04:12.154Z,5.40
2023-01-13T14:06:39.639Z,5.78
2023-01-13T14:09:16.076Z,3.85
2023-01-13T14:11:43.237Z,9.82
2023-01-13T14:14:14.437Z,4.30
2023-01-13T14:16:41.784Z,8.15
2023-01-13T14:19:28.127Z,6.80
2023-01-13T14:21:55.572Z,3.10
2023-01-13T14:24:24.750Z,8.65
2023-01-13T14:26:53.174Z,6.75
2023-01-13T14:29:23.100Z,5.85
2023-01-13T14:31:51.879Z,6.43
2023-01-13T14:34:32.016Z,9.48
2023-01-13T14:37:03.794Z,5.60
2023-01-13T14:39:39.055Z,4.68
2023-01-13T14:42:12.010Z,8.00
2023-01-13T14:44:44.498Z,9.43
2023-01-13T14:47:23.468Z,5.82
2023-01-13T14:50:02.655Z,3.17
2023-01-13T14:52:34.560Z,4.07
2023-01-13T14:55:04.912Z,6.43
2023-01-13T14:57:32.832Z,4.70
2023-01-13T15:00:03.979Z,3.97
2023-01-13T15:02:31.512Z,4.07
2023-01-13T15:05:18.854Z,7.07
2023-01-13T15:07:51.991Z,5.82
2023-01-13T15:10:20.179Z,5.20
2023-01-13T15:12:50.427Z,6.38
2023-01-13T15:15:20.700Z,5.38
2023-01-13T15:17:47.852Z,5.65
2023-01-13T15:20:15.507Z,3.25
2023-01-13T15:22:42.841Z,4.07
2023-01-13T15:25:10.421Z,4.10
2023-01-13T15:27:38.119Z,3.90
2023-01-13T15:30:14.607Z,3.40
2023-01-13T15:32:41.884Z,4.63
2023-01-13T15:35:10.272Z,6.53
2023-01-13T15:37:37.667Z,7.63
2023-01-13T15:40:05.020Z,5.88
2023-01-13T15:42:50.892Z,8.70
2023-01-13T15:45:36.926Z,6.15
2023-01-13T15:48:04.092Z,5.95
2023-01-13T15:50:31.193Z,6.97
2023-01-13T15:52:58.754Z,3.65
2023-01-13T15:55:25.853Z,5.18
2023-01-13T15:57:52.981Z,8.85
2023-01-13T16:00:21.631Z,5.53
2023-01-13T16:02:49.624Z,3.40
2023-01-13T16:05:16.983Z,5.75
2023-01-13T16:07:44.103Z,8.52
2023-01-13T16:10:24.704Z,4.75
2023-01-13T16:12:51.929Z,7.03
2023-01-13T16:15:22.216Z,4.18
2023-01-13T16:17:53.743Z,6.03
2023-01-13T16:20:20.901Z,6.53
2023-01-13T16:22:48.133Z,5.40
2023-01-13T16:25:19.727Z,3.40
2023-01-13T16:27:47.015Z,2.83
2023-01-13T16:30:24.177Z,6.05
2023-01-13T16:32:51.432Z,4.45
2023-01-13T16:35:19.084Z,7.32
2023-01-13T16:37:50.571Z,12.70
2023-01-13T16:40:24.144Z,6.28
2023-01-13T16:42:51.530Z,4.43
2023-01-13T16:45:19.010Z,7.10
2023-01-13T16:47:46.155Z,6.82
2023-01-13T16:50:28.513Z,3.50
2023-01-13T16:52:55.697Z,14.30
2023-01-13T16:55:22.925Z,5.05
2023-01-13T16:57:50.018Z,9.50
2023-01-13T17:00:17.495Z,7.65
2023-01-13T17:02:44.646Z,7.32
2023-01-13T17:05:12.576Z,9.43
2023-01-13T17:07:40.863Z,4.07
2023-01-13T17:10:08.962Z,3.33
2023-01-13T17:12:36.087Z,5.82
2023-01-13T17:15:03.209Z,8.25
2023-01-13T17:17:30.461Z,12.25
2023-01-13T17:19:57.610Z,1.77
2023-01-13T17:22:24.797Z,2.35
2023-01-13T17:24:51.923Z,3.03
2023-01-13T17:27:21.248Z,6.82
2023-01-13T17:29:48.713Z,7.65
2023-01-13T17:32:20.053Z,9.18
2023-01-13T17:34:47.410Z,5.18
2023-01-13T17:37:14.924Z,5.30
2023-01-13T17:39:44.400Z,4.47
2023-01-13T17:42:12.259Z,7.60
2023-01-13T17:44:39.537Z,6.80
2023-01-13T17:47:06.961Z,3.80
2023-01-13T17:49:34.159Z,3.00
2023-01-13T17:52:01.578Z,5.25
2023-01-13T17:54:32.830Z,4.70
2023-01-13T17:57:00.209Z,3.22
2023-01-13T17:59:29.758Z,5.03
2023-01-13T18:01:56.926Z,2.25
2023-01-13T18:04:27.525Z,1.75
2023-01-13T18:06:56.718Z,3.80
2023-01-13T18:09:23.966Z,3.38
2023-01-13T18:11:51.191Z,5.50
2023-01-13T18:14:18.913Z,9.38
2023-01-13T18:16:46.099Z,7.88
2023-01-13T18:19:31.805Z,7.63
2023-01-13T18:22:18.118Z,5.57
2023-01-13T18:25:04.003Z,5.30
2023-01-13T18:27:32.876Z,9.82
2023-01-13T18:30:01.159Z,8.63
2023-01-13T18:32:32.793Z,8.77
2023-01-13T18:35:05.719Z,4.68
2023-01-13T18:37:35.875Z,5.43
2023-01-13T18:40:03.561Z,3.65
2023-01-13T18:42:49.373Z,6.03
2023-01-13T18:45:16.452Z,7.35
2023-01-13T18:47:43.583Z,9.80
2023-01-13T18:50:14.350Z,8.40
2023-01-13T18:52:41.727Z,6.28
2023-01-13T18:55:09.049Z,9.07
2023-01-13T18:57:40.402Z,7.22
2023-01-13T19:00:08.890Z,11.70
2023-01-13T19:02:36.163Z,5.18
2023-01-13T19:05:03.715Z,5.65
2023-01-13T19:07:32.048Z,6.47
2023-01-13T19:10:04.223Z,4.57
2023-01-13T19:12:33.586Z,9.85
2023-01-13T19:15:01.621Z,10.02
2023-01-13T19:17:31.621Z,5.93
2023-01-13T19:19:59.406Z,6.68
2023-01-13T19:22:30.933Z,5.18
2023-01-13T19:24:58.830Z,6.35
2023-01-13T19:27:27.450Z,3.17
2023-01-13T19:29:57.508Z,5.93
2023-01-13T19:32:24.815Z,1.92
2023-01-13T19:34:53.200Z,8.60
2023-01-13T19:37:20.357Z,4.93
2023-01-13T19:39:47.751Z,4.00
2023-01-13T19:42:33.628Z,8.10
2023-01-13T19:45:19.603Z,4.95
2023-01-13T19:47:46.998Z,2.33
2023-01-13T19:50:14.716Z,4.05
2023-01-13T19:52:44.843Z,8.73
2023-01-13T19:55:12.611Z,4.88
2023-01-13T19:57:40.409Z,5.30
2023-01-13T20:00:08.464Z,4.93
2023-01-13T20:02:36.970Z,5.20
2023-01-13T20:05:06.492Z,3.22
2023-01-13T20:07:35.144Z,5.85
2023-01-13T20:10:02.437Z,7.78
2023-01-13T20:12:29.912Z,7.28
2023-01-13T20:14:57.438Z,3.17
2023-01-13T20:17:26.356Z,4.80
2023-01-13T20:19:53.744Z,6.70
2023-01-13T20:22:21.194Z,4.10
2023-01-13T20:24:52.142Z,9.25
2023-01-13T20:27:19.244Z,2.67
2023-01-13T20:29:46.338Z,5.50
2023-01-13T20:32:13.445Z,5.47
2023-01-13T20:34:40.577Z,7.63
2023-01-13T20:37:07.772Z,8.30
2023-01-13T20:39:36.165Z,5.68
2023-01-13T20:42:21.942Z,5.05
2023-01-13T20:44:49.576Z,7.90
2023-01-13T20:47:17.025Z,8.90
2023-01-13T20:49:44.142Z,5.93
2023-01-13T20:52:11.297Z,3.83
2023-01-13T20:54:39.004Z,8.45
2023-01-13T20:57:07.656Z,5.85
2023-01-13T20:59:34.864Z,4.47
2023-01-13T21:02:02.104Z,7.22
2023-01-13T21:04:29.466Z,7.97
2023-01-13T21:06:56.553Z,7.00
2023-01-13T21:09:24.482Z,3.83
2023-01-13T21:12:10.760Z,6.55
2023-01-13T21:14:56.934Z,6.30
2023-01-13T21:17:43.216Z,6.55
2023-01-13T21:20:11.450Z,7.65
2023-01-13T21:22:39.044Z,7.65
2023-01-13T21:25:06.510Z,3.75
2023-01-13T21:27:34.652Z,14.63
2023-01-13T21:30:01.836Z,8.95
2023-01-13T21:32:29.303Z,4.50
2023-01-13T21:34:58.837Z,5.38
2023-01-13T21:37:26.274Z,7.60
2023-01-13T21:39:53.414Z,9.90
2023-01-13T21:42:39.365Z,9.57
2023-01-13T21:45:25.473Z,5.32
2023-01-13T21:47:52.639Z,4.85
2023-01-13T21:50:21.138Z,6.22
2023-01-13T21:52:49.331Z,5.40
2023-01-13T21:55:17.259Z,9.57
2023-01-13T21:57:51.868Z,4.63
2023-01-13T22:00:20.411Z,5.20
2023-01-13T22:02:48.068Z,6.45
2023-01-13T22:05:16.325Z,3.22
2023-01-13T22:07:43.528Z,4.07
2023-01-13T22:10:14.849Z,4.72
2023-01-13T22:12:43.225Z,4.75
2023-01-13T22:15:11.480Z,5.90
2023-01-13T22:17:38.689Z,6.43
2023-01-13T22:20:06.133Z,4.72
2023-01-13T22:22:36.752Z,4.68
2023-01-13T22:25:09.033Z,6.60
2023-01-13T22:27:42.279Z,4.10
2023-01-13T22:30:14.220Z,9.45
2023-01-13T22:32:41.439Z,4.82
2023-01-13T22:35:09.721Z,8.60
2023-01-13T22:37:36.974Z,6.70
2023-01-13T22:40:08.048Z,13.73
2023-01-13T22:42:38.545Z,3.50
2023-01-13T22:45:07.098Z,6.40
2023-01-13T22:47:34.525Z,7.68
2023-01-13T22:50:01.682Z,3.58
2023-01-13T22:52:29.021Z,7.78
2023-01-13T22:54:56.097Z,5.68
2023-01-13T22:57:23.931Z,7.75
2023-01-13T22:59:51.303Z,13.70
2023-01-13T23:02:18.400Z,5.85
2023-01-13T23:04:45.558Z,5.72
2023-01-13T23:07:12.780Z,8.32
2023-01-13T23:09:39.951Z,5.65
2023-01-13T23:12:07.107Z,8.02
2023-01-13T23:14:34.285Z,5.90
2023-01-13T23:17:01.502Z,14.40
2023-01-13T23:19:28.985Z,2.67
2023-01-13T23:21:56.130Z,3.67
2023-01-13T23:24:25.975Z,7.90
2023-01-13T23:26:53.086Z,5.97
2023-01-13T23:29:20.327Z,6.35
2023-01-13T23:31:47.925Z,9.65
2023-01-13T23:34:15.504Z,5.13
2023-01-13T23:36:43.773Z,6.25
2023-01-13T23:39:10.951Z,5.55
2023-01-13T23:41:38.374Z,3.97
2023-01-13T23:44:06.931Z,4.47
2023-01-13T23:46:35.175Z,14.52
2023-01-13T23:49:03.468Z,5.40
2023-01-13T23:51:31.128Z,10.50
2023-01-13T23:53:59.218Z,5.22
2023-01-13T23:56:28.187Z,7.18
2023-01-13T23:58:55.573Z,5.97
